sensor_id;sensor_type;location;lat;lon;timestamp;pressure;altitude;pressure_sealevel;temperature;humidity
42601;BME280;28229;48.856;9.088;2023-08-06T00:00:49;97206.84;;;14.53;100.00
42601;BME280;28229;48.856;9.088;2023-08-06T00:03:15;97201.56;;;14.47;100.00
42601;BME280;28229;48.856;9.088;2023-08-06T00:05:42;97201.00;;;14.51;100.00
42601;BME280;28229;48.856;9.088;2023-08-06T00:08:11;97204.72;;;14.44;100.00
42601;BME280;28229;48.856;9.088;2023-08-06T00:10:39;97200.47;;;14.43;100.00
42601;BME280;28229;48.856;9.088;2023-08-06T00:13:06;97197.81;;;14.43;100.00
42601;BME280;28229;48.856;9.088;2023-08-06T00:15:32;97193.31;;;14.49;100.00
42601;BME280;28229;48.856;9.088;2023-08-06T00:17:58;97189.88;;;14.48;100.00
42601;BME280;28229;48.856;9.088;2023-08-06T00:20:24;97191.22;;;14.46;100.00
42601;BME280;28229;48.856;9.088;2023-08-06T00:22:51;97182.19;;;14.42;100.00
42601;BME280;28229;48.856;9.088;2023-08-06T00:25:17;97190.41;;;14.40;100.00
42601;BME280;28229;48.856;9.088;2023-08-06T00:27:43;97182.75;;;14.44;100.00
42601;BME280;28229;48.856;9.088;2023-08-06T00:30:09;97173.16;;;14.33;100.00
42601;BME280;28229;48.856;9.088;2023-08-06T00:32:36;97180.06;;;14.34;100.00
42601;BME280;28229;48.856;9.088;2023-08-06T00:35:02;97184.28;;;14.30;100.00
42601;BME280;28229;48.856;9.088;2023-08-06T00:37:31;97182.41;;;14.25;100.00
42601;BME280;28229;48.856;9.088;2023-08-06T00:39:59;97175.25;;;14.20;100.00
42601;BME280;28229;48.856;9.088;2023-08-06T00:42:26;97178.41;;;14.12;100.00
42601;BME280;28229;48.856;9.088;2023-08-06T00:44:52;97173.63;;;14.09;100.00
42601;BME280;28229;48.856;9.088;2023-08-06T00:47:18;97172.78;;;13.98;100.00
42601;BME280;28229;48.856;9.088;2023-08-06T00:49:44;97171.44;;;13.90;100.00
42601;BME280;28229;48.856;9.088;2023-08-06T00:52:11;97166.31;;;13.74;100.00
42601;BME280;28229;48.856;9.088;2023-08-06T00:54:39;97154.94;;;13.73;100.00
42601;BME280;28229;48.856;9.088;2023-08-06T00:57:07;97152.59;;;13.77;100.00
42601;BME280;28229;48.856;9.088;2023-08-06T00:59:34;97156.56;;;13.84;100.00
42601;BME280;28229;48.856;9.088;2023-08-06T01:02:01;97155.75;;;13.79;100.00
42601;BME280;28229;48.856;9.088;2023-08-06T01:04:27;97146.75;;;13.75;100.00
42601;BME280;28229;48.856;9.088;2023-08-06T01:10:00;97153.63;;;13.76;100.00
42601;BME280;28229;48.856;9.088;2023-08-06T01:12:50;97147.78;;;13.68;100.00
42601;BME280;28229;48.856;9.088;2023-08-06T01:15:22;97144.03;;;13.59;100.00
42601;BME280;28229;48.856;9.088;2023-08-06T01:17:50;97137.72;;;13.65;100.00
42601;BME280;28229;48.856;9.088;2023-08-06T01:20:17;97139.78;;;13.53;100.00
42601;BME280;28229;48.856;9.088;2023-08-06T01:22:43;97139.00;;;13.58;100.00
42601;BME280;28229;48.856;9.088;2023-08-06T01:25:09;97138.13;;;13.47;100.00
42601;BME280;28229;48.856;9.088;2023-08-06T01:27:48;97138.38;;;13.45;100.00
42601;BME280;28229;48.856;9.088;2023-08-06T01:30:28;97138.66;;;13.49;100.00
42601;BME280;28229;48.856;9.088;2023-08-06T01:32:59;97137.59;;;13.45;100.00
42601;BME280;28229;48.856;9.088;2023-08-06T01:35:27;97135.75;;;13.45;100.00
42601;BME280;28229;48.856;9.088;2023-08-06T01:37:54;97129.22;;;13.53;100.00
42601;BME280;28229;48.856;9.088;2023-08-06T01:40:23;97128.88;;;13.44;100.00
42601;BME280;28229;48.856;9.088;2023-08-06T01:42:49;97123.53;;;13.34;100.00
42601;BME280;28229;48.856;9.088;2023-08-06T01:45:15;97120.94;;;13.39;100.00
42601;BME280;28229;48.856;9.088;2023-08-06T01:47:42;97123.56;;;13.39;100.00
42601;BME280;28229;48.856;9.088;2023-08-06T01:50:08;97127.97;;;13.28;100.00
42601;BME280;28229;48.856;9.088;2023-08-06T01:52:34;97118.97;;;13.29;100.00
42601;BME280;28229;48.856;9.088;2023-08-06T01:55:01;97117.66;;;13.27;100.00
42601;BME280;28229;48.856;9.088;2023-08-06T01:57:27;97114.69;;;13.18;100.00
42601;BME280;28229;48.856;9.088;2023-08-06T01:59:53;97121.00;;;13.17;100.00
42601;BME280;28229;48.856;9.088;2023-08-06T02:02:19;97103.56;;;13.16;100.00
42601;BME280;28229;48.856;9.088;2023-08-06T02:04:46;97101.16;;;13.09;100.00
42601;BME280;28229;48.856;9.088;2023-08-06T02:07:12;97094.25;;;13.03;100.00
42601;BME280;28229;48.856;9.088;2023-08-06T02:09:39;97092.13;;;13.00;100.00
42601;BME280;28229;48.856;9.088;2023-08-06T02:12:06;97088.66;;;12.94;100.00
42601;BME280;28229;48.856;9.088;2023-08-06T02:14:33;97091.78;;;12.91;100.00
42601;BME280;28229;48.856;9.088;2023-08-06T02:16:59;97087.56;;;12.95;100.00
42601;BME280;28229;48.856;9.088;2023-08-06T02:19:25;97080.72;;;12.94;100.00
42601;BME280;28229;48.856;9.088;2023-08-06T02:21:51;97084.59;;;12.87;100.00
42601;BME280;28229;48.856;9.088;2023-08-06T02:24:18;97085.47;;;12.92;100.00
42601;BME280;28229;48.856;9.088;2023-08-06T02:26:44;97074.28;;;12.80;100.00
42601;BME280;28229;48.856;9.088;2023-08-06T02:29:10;97067.88;;;12.71;100.00
42601;BME280;28229;48.856;9.088;2023-08-06T02:31:36;97065.53;;;12.74;100.00
42601;BME280;28229;48.856;9.088;2023-08-06T02:34:02;97065.78;;;12.73;100.00
42601;BME280;28229;48.856;9.088;2023-08-06T02:36:28;97065.53;;;12.74;100.00
42601;BME280;28229;48.856;9.088;2023-08-06T02:38:55;97058.16;;;12.76;100.00
42601;BME280;28229;48.856;9.088;2023-08-06T02:41:22;97051.03;;;12.77;100.00
42601;BME280;28229;48.856;9.088;2023-08-06T02:43:48;97049.41;;;12.76;100.00
42601;BME280;28229;48.856;9.088;2023-08-06T02:46:40;97052.59;;;12.73;100.00
42601;BME280;28229;48.856;9.088;2023-08-06T02:49:06;97044.13;;;12.71;100.00
42601;BME280;28229;48.856;9.088;2023-08-06T02:51:32;97050.97;;;12.72;100.00
42601;BME280;28229;48.856;9.088;2023-08-06T02:53:58;97050.97;;;12.72;100.00
42601;BME280;28229;48.856;9.088;2023-08-06T02:56:24;97044.19;;;12.81;100.00
42601;BME280;28229;48.856;9.088;2023-08-06T02:59:01;97033.19;;;12.94;100.00
42601;BME280;28229;48.856;9.088;2023-08-06T03:01:56;97029.56;;;13.06;100.00
42601;BME280;28229;48.856;9.088;2023-08-06T03:04:30;97030.63;;;13.10;100.00
42601;BME280;28229;48.856;9.088;2023-08-06T03:06:56;97018.28;;;13.16;100.00
42601;BME280;28229;48.856;9.088;2023-08-06T03:09:27;97020.59;;;13.07;100.00
42601;BME280;28229;48.856;9.088;2023-08-06T03:11:53;97023.72;;;12.99;100.00
42601;BME280;28229;48.856;9.088;2023-08-06T03:14:19;97032.72;;;13.03;100.00
42601;BME280;28229;48.856;9.088;2023-08-06T03:16:46;97025.25;;;12.89;100.00
42601;BME280;28229;48.856;9.088;2023-08-06T03:19:15;97021.78;;;12.84;100.00
42601;BME280;28229;48.856;9.088;2023-08-06T03:21:41;97026.81;;;12.90;100.00
42601;BME280;28229;48.856;9.088;2023-08-06T03:24:08;97026.06;;;12.95;100.00
42601;BME280;28229;48.856;9.088;2023-08-06T03:26:36;97029.00;;;12.99;100.00
42601;BME280;28229;48.856;9.088;2023-08-06T03:29:05;97033.81;;;13.07;100.00
42601;BME280;28229;48.856;9.088;2023-08-06T03:31:33;97037.00;;;13.09;100.00
42601;BME280;28229;48.856;9.088;2023-08-06T03:34:00;97035.91;;;13.10;100.00
42601;BME280;28229;48.856;9.088;2023-08-06T03:36:28;97039.38;;;13.10;100.00
42601;BME280;28229;48.856;9.088;2023-08-06T03:38:54;97049.69;;;13.12;100.00
42601;BME280;28229;48.856;9.088;2023-08-06T03:41:21;97038.56;;;13.10;100.00
42601;BME280;28229;48.856;9.088;2023-08-06T03:43:47;97036.44;;;13.07;100.00
42601;BME280;28229;48.856;9.088;2023-08-06T03:46:20;97036.66;;;13.00;100.00
42601;BME280;28229;48.856;9.088;2023-08-06T03:48:46;97030.91;;;13.08;100.00
42601;BME280;28229;48.856;9.088;2023-08-06T03:51:12;97033.56;;;13.08;100.00
42601;BME280;28229;48.856;9.088;2023-08-06T03:53:39;97035.38;;;13.08;100.00
42601;BME280;28229;48.856;9.088;2023-08-06T03:56:05;97034.84;;;13.06;100.00
42601;BME280;28229;48.856;9.088;2023-08-06T03:58:32;97035.63;;;13.06;100.00
42601;BME280;28229;48.856;9.088;2023-08-06T04:01:00;97028.00;;;13.05;100.00
42601;BME280;28229;48.856;9.088;2023-08-06T04:03:28;97034.06;;;13.05;100.00
42601;BME280;28229;48.856;9.088;2023-08-06T04:05:55;97039.63;;;13.09;100.00
42601;BME280;28229;48.856;9.088;2023-08-06T04:08:21;97041.19;;;13.10;100.00
42601;BME280;28229;48.856;9.088;2023-08-06T04:10:52;97045.97;;;13.13;100.00
42601;BME280;28229;48.856;9.088;2023-08-06T04:13:19;97048.09;;;13.11;100.00
42601;BME280;28229;48.856;9.088;2023-08-06T04:15:45;97056.00;;;13.11;100.00
42601;BME280;28229;48.856;9.088;2023-08-06T04:18:12;97059.72;;;13.15;100.00
42601;BME280;28229;48.856;9.088;2023-08-06T04:20:45;97056.88;;;13.22;100.00
42601;BME280;28229;48.856;9.088;2023-08-06T04:23:12;97058.72;;;13.21;100.00
42601;BME280;28229;48.856;9.088;2023-08-06T04:25:39;97053.72;;;13.25;100.00
42601;BME280;28229;48.856;9.088;2023-08-06T04:28:06;97052.91;;;13.24;100.00
42601;BME280;28229;48.856;9.088;2023-08-06T04:30:32;97039.44;;;13.26;100.00
42601;BME280;28229;48.856;9.088;2023-08-06T04:32:59;97046.38;;;13.32;100.00
42601;BME280;28229;48.856;9.088;2023-08-06T04:35:26;97051.97;;;13.36;100.00
42601;BME280;28229;48.856;9.088;2023-08-06T04:37:53;97048.81;;;13.39;100.00
42601;BME280;28229;48.856;9.088;2023-08-06T04:40:19;97049.34;;;13.41;100.00
42601;BME280;28229;48.856;9.088;2023-08-06T04:42:45;97050.88;;;13.37;100.00
42601;BME280;28229;48.856;9.088;2023-08-06T04:45:11;97044.03;;;13.36;100.00
42601;BME280;28229;48.856;9.088;2023-08-06T04:47:37;97046.16;;;13.39;100.00
42601;BME280;28229;48.856;9.088;2023-08-06T04:50:04;97047.75;;;13.40;100.00
42601;BME280;28229;48.856;9.088;2023-08-06T04:52:30;97050.09;;;13.36;100.00
42601;BME280;28229;48.856;9.088;2023-08-06T04:54:58;97054.09;;;13.39;100.00
42601;BME280;28229;48.856;9.088;2023-08-06T04:57:24;97051.41;;;13.33;100.00
42601;BME280;28229;48.856;9.088;2023-08-06T04:59:50;97059.88;;;13.36;100.00
42601;BME280;28229;48.856;9.088;2023-08-06T05:02:16;97064.09;;;13.31;100.00
42601;BME280;28229;48.856;9.088;2023-08-06T05:04:42;97055.66;;;13.40;100.00
42601;BME280;28229;48.856;9.088;2023-08-06T05:07:10;97060.97;;;13.45;100.00
42601;BME280;28229;48.856;9.088;2023-08-06T05:09:36;97058.88;;;13.47;100.00
42601;BME280;28229;48.856;9.088;2023-08-06T05:12:03;97053.63;;;13.52;100.00
42601;BME280;28229;48.856;9.088;2023-08-06T05:14:30;97053.63;;;13.52;100.00
42601;BME280;28229;48.856;9.088;2023-08-06T05:16:56;97055.72;;;13.50;100.00
42601;BME280;28229;48.856;9.088;2023-08-06T05:19:22;97053.09;;;13.55;100.00
42601;BME280;28229;48.856;9.088;2023-08-06T05:21:48;97051.50;;;13.54;100.00
42601;BME280;28229;48.856;9.088;2023-08-06T05:24:14;97053.66;;;13.62;100.00
42601;BME280;28229;48.856;9.088;2023-08-06T05:26:40;97052.59;;;13.63;100.00
42601;BME280;28229;48.856;9.088;2023-08-06T05:29:06;97053.16;;;13.65;100.00
42601;BME280;28229;48.856;9.088;2023-08-06T05:31:32;97056.06;;;13.74;100.00
42601;BME280;28229;48.856;9.088;2023-08-06T05:34:01;97060.84;;;13.77;100.00
42601;BME280;28229;48.856;9.088;2023-08-06T05:36:27;97057.72;;;13.85;100.00
42601;BME280;28229;48.856;9.088;2023-08-06T05:38:53;97061.44;;;13.95;100.00
42601;BME280;28229;48.856;9.088;2023-08-06T05:41:19;97069.63;;;13.93;100.00
42601;BME280;28229;48.856;9.088;2023-08-06T05:43:45;97070.19;;;14.00;100.00
42601;BME280;28229;48.856;9.088;2023-08-06T05:46:12;97073.34;;;14.02;100.00
42601;BME280;28229;48.856;9.088;2023-08-06T05:48:38;97080.00;;;14.10;100.00
42601;BME280;28229;48.856;9.088;2023-08-06T05:51:04;97077.88;;;14.12;100.00
42601;BME280;28229;48.856;9.088;2023-08-06T05:53:30;97074.72;;;14.10;100.00
42601;BME280;28229;48.856;9.088;2023-08-06T05:55:56;97079.19;;;14.09;100.00
42601;BME280;28229;48.856;9.088;2023-08-06T05:58:22;97080.25;;;14.19;100.00
42601;BME280;28229;48.856;9.088;2023-08-06T06:00:51;97078.69;;;14.18;100.00
42601;BME280;28229;48.856;9.088;2023-08-06T06:03:18;97077.09;;;14.17;100.00
42601;BME280;28229;48.856;9.088;2023-08-06T06:05:44;97082.38;;;14.17;100.00
42601;BME280;28229;48.856;9.088;2023-08-06T06:08:10;97092.94;;;14.12;100.00
42601;BME280;28229;48.856;9.088;2023-08-06T06:10:39;97089.25;;;14.07;100.00
42601;BME280;28229;48.856;9.088;2023-08-06T06:13:05;97083.94;;;14.02;100.00
42601;BME280;28229;48.856;9.088;2023-08-06T06:15:31;97090.28;;;13.96;100.00
42601;BME280;28229;48.856;9.088;2023-08-06T06:17:57;97090.78;;;13.93;100.00
42601;BME280;28229;48.856;9.088;2023-08-06T06:20:24;97092.59;;;13.82;100.00
42601;BME280;28229;48.856;9.088;2023-08-06T06:22:50;97089.94;;;13.77;100.00
42601;BME280;28229;48.856;9.088;2023-08-06T06:25:16;97097.06;;;13.77;100.00
42601;BME280;28229;48.856;9.088;2023-08-06T06:27:42;97094.72;;;13.80;100.00
42601;BME280;28229;48.856;9.088;2023-08-06T06:30:09;97093.63;;;13.76;100.00
42601;BME280;28229;48.856;9.088;2023-08-06T06:32:35;97096.28;;;13.81;100.00
42601;BME280;28229;48.856;9.088;2023-08-06T06:35:01;97098.38;;;13.79;100.00
42601;BME280;28229;48.856;9.088;2023-08-06T06:37:27;97099.75;;;13.82;100.00
42601;BME280;28229;48.856;9.088;2023-08-06T06:39:53;97104.47;;;13.75;100.00
42601;BME280;28229;48.856;9.088;2023-08-06T06:42:19;97103.94;;;13.73;100.00
42601;BME280;28229;48.856;9.088;2023-08-06T06:44:51;97108.66;;;13.65;100.00
42601;BME280;28229;48.856;9.088;2023-08-06T06:47:17;97103.91;;;13.67;100.00
42601;BME280;28229;48.856;9.088;2023-08-06T06:49:43;97100.69;;;13.60;100.00
42601;BME280;28229;48.856;9.088;2023-08-06T06:52:09;97099.13;;;13.64;100.00
42601;BME280;28229;48.856;9.088;2023-08-06T06:54:35;97101.50;;;13.66;100.00
42601;BME280;28229;48.856;9.088;2023-08-06T06:57:02;97105.00;;;13.77;100.00
42601;BME280;28229;48.856;9.088;2023-08-06T06:59:28;97100.75;;;13.76;100.00
42601;BME280;28229;48.856;9.088;2023-08-06T07:01:54;97107.13;;;13.80;100.00
42601;BME280;28229;48.856;9.088;2023-08-06T07:04:20;97106.84;;;13.76;100.00
42601;BME280;28229;48.856;9.088;2023-08-06T07:06:47;97102.09;;;13.78;100.00
42601;BME280;28229;48.856;9.088;2023-08-06T07:09:13;97099.22;;;13.80;99.66
42601;BME280;28229;48.856;9.088;2023-08-06T07:11:39;97102.88;;;13.79;99.11
42601;BME280;28229;48.856;9.088;2023-08-06T07:14:07;97104.47;;;13.75;99.81
42601;BME280;28229;48.856;9.088;2023-08-06T07:16:33;97114.75;;;13.71;97.96
42601;BME280;28229;48.856;9.088;2023-08-06T07:19:00;97113.69;;;13.72;99.54
42601;BME280;28229;48.856;9.088;2023-08-06T07:21:26;97111.03;;;13.67;100.00
42601;BME280;28229;48.856;9.088;2023-08-06T07:23:52;97108.16;;;13.74;100.00
42601;BME280;28229;48.856;9.088;2023-08-06T07:26:18;97114.50;;;13.78;99.86
42601;BME280;28229;48.856;9.088;2023-08-06T07:28:44;97115.53;;;13.71;100.00
42601;BME280;28229;48.856;9.088;2023-08-06T07:31:10;97123.50;;;13.77;100.00
42601;BME280;28229;48.856;9.088;2023-08-06T07:33:37;97122.72;;;13.76;100.00
42601;BME280;28229;48.856;9.088;2023-08-06T07:36:11;97123.50;;;13.77;100.00
42601;BME280;28229;48.856;9.088;2023-08-06T07:38:38;97129.56;;;13.77;99.91
42601;BME280;28229;48.856;9.088;2023-08-06T07:41:04;97122.72;;;13.76;99.28
42601;BME280;28229;48.856;9.088;2023-08-06T07:43:31;97125.91;;;13.78;100.00
42601;BME280;28229;48.856;9.088;2023-08-06T07:45:58;97126.72;;;13.84;100.00
42601;BME280;28229;48.856;9.088;2023-08-06T07:48:26;97124.59;;;13.86;100.00
42601;BME280;28229;48.856;9.088;2023-08-06T07:50:56;97117.19;;;13.88;100.00
42601;BME280;28229;48.856;9.088;2023-08-06T07:53:24;97117.16;;;13.78;100.00
42601;BME280;28229;48.856;9.088;2023-08-06T07:55:53;97115.03;;;13.75;100.00
42601;BME280;28229;48.856;9.088;2023-08-06T07:58:20;97114.75;;;13.71;100.00
42601;BME280;28229;48.856;9.088;2023-08-06T08:00:46;97110.06;;;13.83;100.00
42601;BME280;28229;48.856;9.088;2023-08-06T08:03:14;97110.06;;;13.88;100.00
42601;BME280;28229;48.856;9.088;2023-08-06T08:05:41;97109.28;;;13.93;100.00
42601;BME280;28229;48.856;9.088;2023-08-06T08:08:08;97107.19;;;14.00;100.00
42601;BME280;28229;48.856;9.088;2023-08-06T08:10:34;97110.41;;;14.07;100.00
42601;BME280;28229;48.856;9.088;2023-08-06T08:13:03;97114.13;;;14.22;100.00
42601;BME280;28229;48.856;9.088;2023-08-06T08:15:31;97105.75;;;14.40;100.00
42601;BME280;28229;48.856;9.088;2023-08-06T08:17:58;97110.78;;;14.57;100.00
42601;BME280;28229;48.856;9.088;2023-08-06T08:20:24;97104.72;;;14.77;100.00
42601;BME280;28229;48.856;9.088;2023-08-06T08:22:50;97110.56;;;14.84;97.13
42601;BME280;28229;48.856;9.088;2023-08-06T08:25:17;97107.91;;;14.90;95.09
42601;BME280;28229;48.856;9.088;2023-08-06T08:27:43;97105.25;;;15.00;94.92
42601;BME280;28229;48.856;9.088;2023-08-06T08:30:09;97101.84;;;15.04;93.55
42601;BME280;28229;48.856;9.088;2023-08-06T08:32:35;97098.88;;;15.11;93.21
42601;BME280;28229;48.856;9.088;2023-08-06T08:35:01;97102.63;;;15.15;94.04
42601;BME280;28229;48.856;9.088;2023-08-06T08:37:27;97102.88;;;15.24;93.70
42601;BME280;28229;48.856;9.088;2023-08-06T08:39:54;97102.56;;;15.36;92.47
42601;BME280;28229;48.856;9.088;2023-08-06T08:42:21;97108.38;;;15.38;90.82
42601;BME280;28229;48.856;9.088;2023-08-06T08:44:47;97099.91;;;15.46;90.66
42601;BME280;28229;48.856;9.088;2023-08-06T08:47:14;97109.97;;;15.49;91.05
42601;BME280;28229;48.856;9.088;2023-08-06T08:49:42;97104.16;;;15.42;91.39
42601;BME280;28229;48.856;9.088;2023-08-06T08:52:10;97104.69;;;15.39;94.84
42601;BME280;28229;48.856;9.088;2023-08-06T08:54:38;97108.13;;;15.29;95.04
42601;BME280;28229;48.856;9.088;2023-08-06T08:57:05;97115.31;;;15.18;94.99
42601;BME280;28229;48.856;9.088;2023-08-06T08:59:33;97109.47;;;15.11;96.26
42601;BME280;28229;48.856;9.088;2023-08-06T09:02:01;97108.44;;;14.97;96.80
42601;BME280;28229;48.856;9.088;2023-08-06T09:04:29;97108.97;;;14.83;96.84
42601;BME280;28229;48.856;9.088;2023-08-06T09:06:59;97103.41;;;14.75;97.75
42601;BME280;28229;48.856;9.088;2023-08-06T09:09:26;97112.16;;;14.75;97.79
42601;BME280;28229;48.856;9.088;2023-08-06T09:11:59;97115.06;;;14.84;99.36
42601;BME280;28229;48.856;9.088;2023-08-06T09:14:26;97111.63;;;14.89;99.07
42601;BME280;28229;48.856;9.088;2023-08-06T09:16:53;97121.41;;;14.83;97.01
42601;BME280;28229;48.856;9.088;2023-08-06T09:19:19;97135.97;;;14.80;97.94
42601;BME280;28229;48.856;9.088;2023-08-06T09:21:45;97136.00;;;14.85;98.93
42601;BME280;28229;48.856;9.088;2023-08-06T09:24:15;97134.38;;;14.90;99.87
42601;BME280;28229;48.856;9.088;2023-08-06T09:26:44;97136.53;;;14.98;99.96
42601;BME280;28229;48.856;9.088;2023-08-06T09:29:11;97138.63;;;15.06;99.00
42601;BME280;28229;48.856;9.088;2023-08-06T09:31:42;97133.88;;;15.03;98.45
42601;BME280;28229;48.856;9.088;2023-08-06T09:34:15;97138.09;;;15.04;98.97
42601;BME280;28229;48.856;9.088;2023-08-06T09:36:43;97137.56;;;15.02;100.00
42601;BME280;28229;48.856;9.088;2023-08-06T09:39:16;97140.78;;;14.94;98.18
42601;BME280;28229;48.856;9.088;2023-08-06T09:41:43;97140.75;;;14.99;96.75
42601;BME280;28229;48.856;9.088;2023-08-06T09:44:19;97144.22;;;14.99;97.91
42601;BME280;28229;48.856;9.088;2023-08-06T09:46:50;97143.66;;;15.02;97.46
42601;BME280;28229;48.856;9.088;2023-08-06T09:49:18;97138.66;;;15.01;96.36
42601;BME280;28229;48.856;9.088;2023-08-06T09:51:46;97146.88;;;15.04;96.64
42601;BME280;28229;48.856;9.088;2023-08-06T09:54:12;97136.25;;;15.04;95.46
42601;BME280;28229;48.856;9.088;2023-08-06T09:56:40;97141.81;;;15.08;94.94
42601;BME280;28229;48.856;9.088;2023-08-06T09:59:06;97139.16;;;15.13;94.23
42601;BME280;28229;48.856;9.088;2023-08-06T10:01:34;97137.06;;;15.15;93.78
42601;BME280;28229;48.856;9.088;2023-08-06T10:04:02;97144.75;;;15.17;94.42
42601;BME280;28229;48.856;9.088;2023-08-06T10:06:29;97147.66;;;15.15;93.11
42601;BME280;28229;48.856;9.088;2023-08-06T10:08:55;97156.13;;;15.22;93.18
42601;BME280;28229;48.856;9.088;2023-08-06T10:11:24;97142.31;;;15.36;92.60
42601;BME280;28229;48.856;9.088;2023-08-06T10:14:21;97150.78;;;15.48;94.22
42601;BME280;28229;48.856;9.088;2023-08-06T10:16:50;97156.59;;;15.55;94.20
42601;BME280;28229;48.856;9.088;2023-08-06T10:19:18;97147.56;;;15.67;90.51
42601;BME280;28229;48.856;9.088;2023-08-06T10:29:48;97156.06;;;15.69;86.78
42601;BME280;28229;48.856;9.088;2023-08-06T10:32:15;97152.59;;;15.68;86.76
42601;BME280;28229;48.856;9.088;2023-08-06T10:35:15;97155.25;;;15.68;86.61
42601;BME280;28229;48.856;9.088;2023-08-06T10:37:53;97149.41;;;15.71;84.66
42601;BME280;28229;48.856;9.088;2023-08-06T10:40:23;97161.38;;;15.69;84.92
42601;BME280;28229;48.856;9.088;2023-08-06T10:42:50;97155.50;;;15.72;84.94
42601;BME280;28229;48.856;9.088;2023-08-06T10:45:19;97160.28;;;15.70;83.90
42601;BME280;28229;48.856;9.088;2023-08-06T10:47:48;97163.19;;;15.73;85.64
42601;BME280;28229;48.856;9.088;2023-08-06T10:50:16;97164.28;;;15.72;85.78
42601;BME280;28229;48.856;9.088;2023-08-06T10:52:46;97173.81;;;15.63;85.91
42601;BME280;28229;48.856;9.088;2023-08-06T10:55:28;97179.94;;;15.64;88.13
42601;BME280;28229;48.856;9.088;2023-08-06T10:57:55;97177.28;;;15.58;88.21
42601;BME280;28229;48.856;9.088;2023-08-06T11:00:22;97187.38;;;15.41;86.21
42601;BME280;28229;48.856;9.088;2023-08-06T11:02:55;97186.84;;;15.18;84.61
42601;BME280;28229;48.856;9.088;2023-08-06T11:05:22;97187.38;;;15.05;86.36
42601;BME280;28229;48.856;9.088;2023-08-06T11:07:48;97193.44;;;14.95;85.56
42601;BME280;28229;48.856;9.088;2023-08-06T11:10:15;97184.19;;;14.98;86.51
42601;BME280;28229;48.856;9.088;2023-08-06T11:12:41;97198.25;;;15.03;87.95
42601;BME280;28229;48.856;9.088;2023-08-06T11:15:07;97185.78;;;15.04;88.05
42601;BME280;28229;48.856;9.088;2023-08-06T11:17:34;97206.44;;;15.02;87.31
42601;BME280;28229;48.856;9.088;2023-08-06T11:20:05;97201.66;;;14.89;86.34
42601;BME280;28229;48.856;9.088;2023-08-06T11:22:31;97204.84;;;14.91;86.74
42601;BME280;28229;48.856;9.088;2023-08-06T11:24:58;97206.41;;;14.92;86.90
42601;BME280;28229;48.856;9.088;2023-08-06T11:27:27;97209.06;;;14.92;84.36
42601;BME280;28229;48.856;9.088;2023-08-06T11:29:55;97212.28;;;14.94;85.31
42601;BME280;28229;48.856;9.088;2023-08-06T11:32:21;97210.16;;;15.01;86.46
42601;BME280;28229;48.856;9.088;2023-08-06T11:34:47;97213.84;;;15.00;86.87
42601;BME280;28229;48.856;9.088;2023-08-06T11:37:13;97222.59;;;14.90;84.36
42601;BME280;28229;48.856;9.088;2023-08-06T11:39:45;97234.75;;;14.91;85.62
42601;BME280;28229;48.856;9.088;2023-08-06T11:42:12;97224.41;;;14.79;88.21
42601;BME280;28229;48.856;9.088;2023-08-06T11:44:40;97233.38;;;14.63;87.82
42601;BME280;28229;48.856;9.088;2023-08-06T11:47:15;97235.66;;;14.49;89.25
42601;BME280;28229;48.856;9.088;2023-08-06T11:49:47;97247.25;;;14.33;88.76
42601;BME280;28229;48.856;9.088;2023-08-06T11:52:28;97245.88;;;14.20;91.35
42601;BME280;28229;48.856;9.088;2023-08-06T11:55:08;97240.59;;;14.20;92.46
42601;BME280;28229;48.856;9.088;2023-08-06T11:57:38;97254.28;;;14.12;93.64
42601;BME280;28229;48.856;9.088;2023-08-06T12:00:07;97255.84;;;14.07;94.47
42601;BME280;28229;48.856;9.088;2023-08-06T12:02:45;97259.78;;;14.00;94.18
42601;BME280;28229;48.856;9.088;2023-08-06T12:05:15;97251.81;;;13.95;94.63
42601;BME280;28229;48.856;9.088;2023-08-06T12:07:45;97256.81;;;13.91;94.42
42601;BME280;28229;48.856;9.088;2023-08-06T12:10:15;97263.72;;;13.92;96.01
42601;BME280;28229;48.856;9.088;2023-08-06T12:12:42;97265.81;;;13.90;96.24
42601;BME280;28229;48.856;9.088;2023-08-06T12:15:09;97263.69;;;13.87;96.35
42601;BME280;28229;48.856;9.088;2023-08-06T12:17:36;97270.03;;;13.91;96.60
42601;BME280;28229;48.856;9.088;2023-08-06T12:20:03;97285.09;;;13.85;95.78
42601;BME280;28229;48.856;9.088;2023-08-06T12:22:33;97272.34;;;13.77;94.66
42601;BME280;28229;48.856;9.088;2023-08-06T12:25:06;97281.63;;;13.85;96.13
42601;BME280;28229;48.856;9.088;2023-08-06T12:27:34;97283.19;;;13.81;94.77
42601;BME280;28229;48.856;9.088;2023-08-06T12:30:01;97278.97;;;13.85;94.42
42601;BME280;28229;48.856;9.088;2023-08-06T12:32:27;97285.38;;;13.89;94.13
42601;BME280;28229;48.856;9.088;2023-08-06T12:34:53;97274.34;;;14.02;93.95
42601;BME280;28229;48.856;9.088;2023-08-06T12:37:20;97281.84;;;14.16;92.30
42601;BME280;28229;48.856;9.088;2023-08-06T12:39:46;97285.91;;;14.34;92.15
42601;BME280;28229;48.856;9.088;2023-08-06T12:42:14;97279.38;;;14.52;89.59
42601;BME280;28229;48.856;9.088;2023-08-06T12:44:41;97301.72;;;14.71;87.92
42601;BME280;28229;48.856;9.088;2023-08-06T12:47:07;97279.50;;;14.88;85.74
42601;BME280;28229;48.856;9.088;2023-08-06T12:49:34;97277.47;;;15.10;87.54
42601;BME280;28229;48.856;9.088;2023-08-06T12:52:00;97286.50;;;15.30;85.70
42601;BME280;28229;48.856;9.088;2023-08-06T12:54:27;97292.34;;;15.47;84.09
42601;BME280;28229;48.856;9.088;2023-08-06T12:56:53;97300.28;;;15.63;80.50
42601;BME280;28229;48.856;9.088;2023-08-06T12:59:20;97293.69;;;15.75;79.29
42601;BME280;28229;48.856;9.088;2023-08-06T13:01:46;97304.03;;;15.82;78.87
42601;BME280;28229;48.856;9.088;2023-08-06T13:04:13;97297.13;;;15.96;79.90
42601;BME280;28229;48.856;9.088;2023-08-06T13:06:40;97300.28;;;16.09;78.36